Time;durP1;ratioP1;P1;durP2;ratioP2;P2;SDS_P1;SDS_P2;PMS_P1;PMS_P2;Temp;Humidity;BMP_temperature;BMP_pressure;BME280_temperature;BME280_humidity;BME280_pressure;Samples;Min_cycle;Max_cycle;Signal;HPM_P1;HPM_P2
2023/01/17 00:02:00;;;;;;;0.50;0.50;;;;;;;;;;5051758;28;20230;-88
2023/01/17 00:10:07;;;;;;;0.60;0.60;;;;;;;;;;5051850;28;20188;-88
2023/01/17 00:12:35;;;;;;;0.60;0.60;;;;;;;;;;5053240;28;20218;-88
2023/01/17 00:15:03;;;;;;;1.40;0.77;;;;;;;;;;5055542;28;20631;-88
2023/01/17 00:17:31;;;;;;;0.50;0.50;;;;;;;;;;5054986;28;20208;-88
2023/01/17 01:35:33;;;;;;;0.50;0.50;;;;;;;;;;5073568;28;20374;-88
2023/01/17 01:38:03;;;;;;;0.60;0.60;;;;;;;;;;5073490;28;20288;-88
2023/01/17 01:40:32;;;;;;;0.57;0.57;;;;;;;;;;5073491;28;20650;-88
2023/01/17 01:43:04;;;;;;;0.60;0.60;;;;;;;;;;5073577;28;20366;-88
2023/01/17 01:45:32;;;;;;;0.60;0.60;;;;;;;;;;5073449;28;20657;-88
2023/01/17 01:48:04;;;;;;;0.60;0.60;;;;;;;;;;5073480;28;20203;-88
2023/01/17 01:50:35;;;;;;;0.60;0.60;;;;;;;;;;5073458;28;20203;-88
2023/01/17 01:53:04;;;;;;;0.70;0.70;;;;;;;;;;5073479;28;20455;-88
2023/01/17 01:55:37;;;;;;;0.47;0.47;;;;;;;;;;5073419;28;20239;-88
2023/01/17 01:58:10;;;;;;;0.65;0.65;;;;;;;;;;5073339;28;20185;-88
2023/01/17 02:00:39;;;;;;;0.60;0.60;;;;;;;;;;5073177;28;20658;-87
2023/01/17 02:03:11;;;;;;;0.50;0.50;;;;;;;;;;5073000;28;20221;-88
2023/01/17 02:05:41;;;;;;;0.63;0.63;;;;;;;;;;5072796;28;20266;-88
2023/01/17 02:08:11;;;;;;;0.70;0.70;;;;;;;;;;5072801;28;20254;-88
2023/01/17 02:10:42;;;;;;;0.60;0.60;;;;;;;;;;5072849;28;20251;-87
2023/01/17 02:13:12;;;;;;;0.60;0.60;;;;;;;;;;5072750;28;20626;-88
2023/01/17 02:15:48;;;;;;;0.80;0.80;;;;;;;;;;5073142;28;20209;-88
2023/01/17 02:18:25;;;;;;;0.60;0.60;;;;;;;;;;5072563;28;20713;-88
2023/01/17 02:21:22;;;;;;;1.45;0.68;;;;;;;;;;5072767;28;20276;-87
2023/01/17 02:24:40;;;;;;;0.50;0.50;;;;;;;;;;5072618;28;20593;-87
2023/01/17 02:27:16;;;;;;;0.43;0.43;;;;;;;;;;5070014;28;20232;-87
2023/01/17 02:30:16;;;;;;;0.60;0.60;;;;;;;;;;5072848;28;20220;-87
2023/01/17 02:33:01;;;;;;;0.63;0.63;;;;;;;;;;5061806;28;20252;-87
2023/01/17 02:35:38;;;;;;;0.60;0.60;;;;;;;;;;5071890;28;20315;-87
2023/01/17 02:38:17;;;;;;;0.60;0.60;;;;;;;;;;5072122;28;20245;-88
2023/01/17 02:40:48;;;;;;;0.60;0.60;;;;;;;;;;5072727;28;20208;-87
2023/01/17 02:43:17;;;;;;;0.70;0.70;;;;;;;;;;5072430;28;20203;-88
2023/01/17 02:45:46;;;;;;;0.57;0.57;;;;;;;;;;5072437;28;20232;-87
2023/01/17 02:48:17;;;;;;;0.45;0.45;;;;;;;;;;5072141;28;20317;-88
2023/01/17 02:51:35;;;;;;;0.60;0.60;;;;;;;;;;5072348;28;20213;-87
2023/01/17 02:54:22;;;;;;;0.55;0.55;;;;;;;;;;5072382;28;20233;-88
2023/01/17 02:56:58;;;;;;;0.75;0.75;;;;;;;;;;5072062;28;20182;-88
2023/01/17 02:59:37;;;;;;;0.55;0.55;;;;;;;;;;5072074;28;20290;-87
2023/01/17 03:02:16;;;;;;;0.82;0.82;;;;;;;;;;5072519;28;20204;-88
2023/01/17 03:04:49;;;;;;;0.85;0.85;;;;;;;;;;5071717;28;20311;-87
2023/01/17 03:07:19;;;;;;;0.60;0.60;;;;;;;;;;5072138;28;20546;-88
2023/01/17 03:09:52;;;;;;;0.65;0.65;;;;;;;;;;5071760;28;20213;-88
2023/01/17 03:12:20;;;;;;;0.77;0.77;;;;;;;;;;5072602;28;20211;-88
2023/01/17 03:14:48;;;;;;;0.70;0.70;;;;;;;;;;5072068;28;20260;-88
2023/01/17 03:17:17;;;;;;;0.75;0.75;;;;;;;;;;5072034;28;20197;-87
2023/01/17 03:19:44;;;;;;;0.70;0.70;;;;;;;;;;5071668;28;20225;-87
2023/01/17 03:22:12;;;;;;;0.93;0.93;;;;;;;;;;5071961;28;20694;-87
2023/01/17 03:24:39;;;;;;;0.70;0.70;;;;;;;;;;5072087;28;20248;-88
2023/01/17 03:27:07;;;;;;;0.60;0.60;;;;;;;;;;5072089;28;20240;-88
2023/01/17 03:29:34;;;;;;;0.50;0.50;;;;;;;;;;5071634;28;20646;-88
2023/01/17 03:32:02;;;;;;;0.80;0.80;;;;;;;;;;5072118;28;20625;-87
2023/01/17 03:34:31;;;;;;;0.60;0.60;;;;;;;;;;5071525;28;20663;-88
2023/01/17 03:36:58;;;;;;;0.60;0.60;;;;;;;;;;5071711;28;20193;-88
2023/01/17 03:39:26;;;;;;;0.63;0.63;;;;;;;;;;5072211;28;20239;-88
2023/01/17 03:41:53;;;;;;;0.43;0.43;;;;;;;;;;5072738;28;20713;-88
2023/01/17 03:44:21;;;;;;;0.70;0.70;;;;;;;;;;5072995;28;20299;-87
2023/01/17 03:46:48;;;;;;;0.50;0.50;;;;;;;;;;5074565;28;20254;-88
2023/01/17 03:49:16;;;;;;;0.52;0.52;;;;;;;;;;5076457;28;20240;-88
2023/01/17 03:51:45;;;;;;;0.60;0.60;;;;;;;;;;5076290;28;20623;-88
2023/01/17 03:54:12;;;;;;;0.43;0.43;;;;;;;;;;5076602;28;20227;-87
2023/01/17 03:56:40;;;;;;;0.50;0.50;;;;;;;;;;5076299;28;20613;-88
2023/01/17 03:59:07;;;;;;;0.47;0.47;;;;;;;;;;5076403;28;20323;-87
2023/01/17 04:01:35;;;;;;;0.70;0.70;;;;;;;;;;5076856;28;20240;-88
2023/01/17 04:04:02;;;;;;;0.50;0.50;;;;;;;;;;5076046;28;20773;-88
2023/01/17 04:06:30;;;;;;;0.63;0.63;;;;;;;;;;5076486;28;20197;-87
2023/01/17 04:08:59;;;;;;;0.60;0.60;;;;;;;;;;5076289;28;20236;-88
2023/01/17 04:11:26;;;;;;;0.70;0.70;;;;;;;;;;5076187;28;20232;-88
2023/01/17 04:13:54;;;;;;;0.43;0.43;;;;;;;;;;5076173;28;20282;-87
2023/01/17 04:16:24;;;;;;;0.57;0.57;;;;;;;;;;5075943;28;20232;-88
2023/01/17 04:18:51;;;;;;;0.50;0.50;;;;;;;;;;5076112;28;20619;-87
2023/01/17 04:21:19;;;;;;;0.50;0.50;;;;;;;;;;5076077;28;20283;-87
2023/01/17 04:23:47;;;;;;;0.45;0.43;;;;;;;;;;5075972;28;20679;-87
2023/01/17 04:26:16;;;;;;;0.50;0.50;;;;;;;;;;5076040;28;20591;-88
2023/01/17 04:28:43;;;;;;;0.40;0.40;;;;;;;;;;5075170;28;20736;-88
2023/01/17 04:31:14;;;;;;;0.60;0.60;;;;;;;;;;5074767;28;20205;-88
2023/01/17 04:33:41;;;;;;;0.50;0.50;;;;;;;;;;5075172;28;20247;-88
2023/01/17 04:36:09;;;;;;;0.50;0.50;;;;;;;;;;5074401;28;20225;-88
2023/01/17 04:38:37;;;;;;;0.43;0.43;;;;;;;;;;5074543;28;20308;-88
2023/01/17 04:41:05;;;;;;;0.52;0.50;;;;;;;;;;5074553;28;20291;-88
2023/01/17 04:43:34;;;;;;;0.38;0.38;;;;;;;;;;5074487;28;20304;-87
2023/01/17 04:46:03;;;;;;;0.50;0.50;;;;;;;;;;5074537;28;20203;-88
2023/01/17 04:48:32;;;;;;;0.50;0.50;;;;;;;;;;5073891;28;20254;-88
2023/01/17 04:51:03;;;;;;;0.77;0.77;;;;;;;;;;5074616;28;20626;-88
2023/01/17 04:53:30;;;;;;;0.60;0.60;;;;;;;;;;5075285;28;20236;-87
2023/01/17 04:55:58;;;;;;;0.80;0.80;;;;;;;;;;5074251;28;20312;-87
2023/01/17 04:58:26;;;;;;;0.70;0.70;;;;;;;;;;5073888;28;20610;-88
2023/01/17 05:00:55;;;;;;;0.95;0.70;;;;;;;;;;5057388;28;20293;-87
2023/01/17 05:03:23;;;;;;;0.60;0.60;;;;;;;;;;5054582;28;20304;-88
2023/01/17 05:05:51;;;;;;;0.60;0.60;;;;;;;;;;5053652;28;20284;-87
2023/01/17 05:08:19;;;;;;;0.65;0.65;;;;;;;;;;5054255;28;20289;-88
2023/01/17 05:10:46;;;;;;;0.98;0.60;;;;;;;;;;5053959;28;20633;-87
2023/01/17 05:13:14;;;;;;;1.77;0.65;;;;;;;;;;5053729;28;20289;-88
2023/01/17 05:15:42;;;;;;;0.60;0.60;;;;;;;;;;5053862;28;20651;-88
2023/01/17 05:18:13;;;;;;;0.70;0.70;;;;;;;;;;5053933;28;20292;-87
2023/01/17 05:20:40;;;;;;;0.60;0.60;;;;;;;;;;5053575;28;20254;-88
2023/01/17 05:23:08;;;;;;;0.50;0.50;;;;;;;;;;5053709;28;20512;-88
2023/01/17 05:25:36;;;;;;;0.55;0.55;;;;;;;;;;5053643;28;20310;-88
2023/01/17 05:28:04;;;;;;;0.70;0.70;;;;;;;;;;5053536;28;20218;-87
2023/01/17 05:30:33;;;;;;;0.40;0.40;;;;;;;;;;5067874;28;20208;-87
2023/01/17 05:33:01;;;;;;;0.55;0.55;;;;;;;;;;5073688;28;20201;-87
2023/01/17 05:35:32;;;;;;;0.40;0.40;;;;;;;;;;5073327;28;20689;-88
2023/01/17 05:38:00;;;;;;;0.50;0.50;;;;;;;;;;5073381;28;20216;-87
2023/01/17 05:40:30;;;;;;;0.80;0.80;;;;;;;;;;5073169;28;20228;-87
2023/01/17 05:42:59;;;;;;;0.93;0.93;;;;;;;;;;5073664;28;20287;-87
2023/01/17 05:45:29;;;;;;;0.90;0.90;;;;;;;;;;5073068;28;20781;-87
2023/01/17 05:47:58;;;;;;;0.50;0.50;;;;;;;;;;5073362;28;20291;-87
2023/01/17 05:50:28;;;;;;;1.33;0.60;;;;;;;;;;5074053;28;20560;-88
2023/01/17 05:52:59;;;;;;;0.55;0.55;;;;;;;;;;5073414;28;20220;-88
2023/01/17 05:55:28;;;;;;;0.60;0.60;;;;;;;;;;5072772;28;20285;-88
2023/01/17 05:57:56;;;;;;;0.30;0.30;;;;;;;;;;5073331;28;20292;-88
2023/01/17 06:00:24;;;;;;;0.52;0.52;;;;;;;;;;5073027;28;20204;-87
2023/01/17 06:02:54;;;;;;;0.47;0.47;;;;;;;;;;5073546;28;20197;-89
2023/01/17 06:05:22;;;;;;;0.38;0.38;;;;;;;;;;5073900;28;20346;-87
2023/01/17 06:07:50;;;;;;;0.40;0.40;;;;;;;;;;5073256;28;20292;-88
2023/01/17 06:10:21;;;;;;;0.30;0.30;;;;;;;;;;5073527;28;20224;-88
2023/01/17 06:12:48;;;;;;;0.50;0.50;;;;;;;;;;5073643;28;20197;-88
2023/01/17 06:15:18;;;;;;;0.82;0.70;;;;;;;;;;5072715;28;20221;-88
2023/01/17 06:17:45;;;;;;;0.40;0.40;;;;;;;;;;5073364;28;20252;-87
2023/01/17 06:20:13;;;;;;;0.30;0.30;;;;;;;;;;5072829;28;20258;-87
2023/01/17 06:22:41;;;;;;;0.40;0.40;;;;;;;;;;5073215;28;20232;-87
2023/01/17 06:25:09;;;;;;;0.30;0.30;;;;;;;;;;5073182;28;20244;-88
2023/01/17 06:27:38;;;;;;;0.77;0.77;;;;;;;;;;5073530;28;20243;-88
2023/01/17 06:30:08;;;;;;;1.08;0.40;;;;;;;;;;5076125;28;20215;-87
2023/01/17 06:32:35;;;;;;;0.22;0.22;;;;;;;;;;5078271;28;20231;-87
2023/01/17 06:35:03;;;;;;;0.40;0.40;;;;;;;;;;5077860;28;20217;-87
2023/01/17 06:37:31;;;;;;;0.30;0.30;;;;;;;;;;5074973;28;20316;-88
2023/01/17 06:39:58;;;;;;;0.50;0.50;;;;;;;;;;5072696;28;20205;-87
2023/01/17 06:42:26;;;;;;;0.40;0.40;;;;;;;;;;5072488;28;20440;-88
2023/01/17 06:44:54;;;;;;;0.30;0.30;;;;;;;;;;5072428;28;20248;-88
2023/01/17 06:47:22;;;;;;;0.43;0.43;;;;;;;;;;5072615;28;20714;-87
2023/01/17 06:49:50;;;;;;;0.30;0.30;;;;;;;;;;5072698;28;20627;-88
2023/01/17 06:52:18;;;;;;;0.38;0.38;;;;;;;;;;5072211;28;20642;-88
2023/01/17 06:54:45;;;;;;;0.50;0.50;;;;;;;;;;5070714;28;20298;-87
2023/01/17 06:57:13;;;;;;;0.47;0.47;;;;;;;;;;5064333;28;20565;-88
2023/01/17 06:59:40;;;;;;;0.75;0.75;;;;;;;;;;5072946;28;20690;-87
2023/01/17 07:02:11;;;;;;;0.90;0.75;;;;;;;;;;5072696;28;20232;-88
2023/01/17 07:04:39;;;;;;;0.50;0.50;;;;;;;;;;5072525;28;20209;-87
2023/01/17 07:07:06;;;;;;;0.80;0.80;;;;;;;;;;5072187;28;20677;-88
2023/01/17 07:09:34;;;;;;;0.70;0.70;;;;;;;;;;5072230;28;20266;-88
2023/01/17 07:12:01;;;;;;;0.60;0.60;;;;;;;;;;5072957;28;20648;-88
2023/01/17 07:14:29;;;;;;;0.88;0.88;;;;;;;;;;5073121;28;20241;-87
2023/01/17 07:16:57;;;;;;;0.50;0.50;;;;;;;;;;5072288;28;20311;-89
2023/01/17 07:19:26;;;;;;;0.70;0.70;;;;;;;;;;5072129;28;20193;-87
2023/01/17 07:21:54;;;;;;;1.00;0.68;;;;;;;;;;5071667;28;20197;-86
2023/01/17 07:24:22;;;;;;;0.60;0.60;;;;;;;;;;5072363;28;20305;-87
2023/01/17 07:26:50;;;;;;;1.63;0.70;;;;;;;;;;5072377;28;20678;-86
2023/01/17 07:29:18;;;;;;;0.75;0.75;;;;;;;;;;5072118;28;20841;-87
2023/01/17 07:31:48;;;;;;;0.60;0.60;;;;;;;;;;5072512;28;20300;-87
2023/01/17 07:34:15;;;;;;;0.70;0.70;;;;;;;;;;5072026;28;20248;-87
2023/01/17 07:36:46;;;;;;;0.75;0.75;;;;;;;;;;5071793;28;20291;-87
2023/01/17 07:39:14;;;;;;;0.90;0.90;;;;;;;;;;5069584;28;20205;-87
2023/01/17 07:41:42;;;;;;;0.60;0.60;;;;;;;;;;5051942;28;20202;-87
2023/01/17 07:44:11;;;;;;;0.57;0.57;;;;;;;;;;5052066;28;20256;-87
2023/01/17 07:46:39;;;;;;;1.17;1.08;;;;;;;;;;5051518;28;20655;-87
2023/01/17 07:49:06;;;;;;;1.83;0.90;;;;;;;;;;5051982;28;20233;-86
2023/01/17 07:51:34;;;;;;;0.70;0.70;;;;;;;;;;5051833;28;20190;-87
2023/01/17 07:54:03;;;;;;;0.45;0.45;;;;;;;;;;5051701;28;20247;-87
2023/01/17 07:56:31;;;;;;;0.75;0.75;;;;;;;;;;5054368;28;20204;-87
2023/01/17 07:58:58;;;;;;;0.70;0.70;;;;;;;;;;5052027;28;20284;-87
2023/01/17 08:01:26;;;;;;;0.68;0.68;;;;;;;;;;5051735;28;20648;-87
2023/01/17 08:03:54;;;;;;;0.70;0.70;;;;;;;;;;5052388;28;20210;-87
2023/01/17 08:06:23;;;;;;;0.57;0.57;;;;;;;;;;5052414;28;20714;-87
2023/01/17 08:08:51;;;;;;;0.70;0.70;;;;;;;;;;5052167;28;20275;-87
2023/01/17 08:11:20;;;;;;;0.60;0.60;;;;;;;;;;5052266;28;20252;-88
2023/01/17 08:13:48;;;;;;;0.52;0.52;;;;;;;;;;5051732;28;20222;-88
2023/01/17 08:16:16;;;;;;;0.70;0.70;;;;;;;;;;5051890;28;20216;-87
2023/01/17 08:18:43;;;;;;;0.70;0.70;;;;;;;;;;5051700;28;20231;-87
2023/01/17 08:21:15;;;;;;;0.60;0.60;;;;;;;;;;5051717;28;20569;-87
2023/01/17 08:23:43;;;;;;;0.70;0.70;;;;;;;;;;5052612;28;20248;-88
2023/01/17 08:26:20;;;;;;;0.63;0.63;;;;;;;;;;5051410;28;20224;-88
2023/01/17 08:28:53;;;;;;;0.80;0.80;;;;;;;;;;5051683;28;20235;-87
2023/01/17 08:31:21;;;;;;;0.80;0.80;;;;;;;;;;5051566;28;20239;-88
2023/01/17 08:33:49;;;;;;;0.52;0.52;;;;;;;;;;5053498;28;20225;-88
2023/01/17 08:36:16;;;;;;;0.60;0.60;;;;;;;;;;5054967;28;20225;-88
2023/01/17 08:38:44;;;;;;;1.02;0.88;;;;;;;;;;5054603;28;20272;-88
2023/01/17 08:41:12;;;;;;;0.40;0.40;;;;;;;;;;5055337;28;20194;-87
2023/01/17 08:43:40;;;;;;;0.57;0.57;;;;;;;;;;5055743;28;20224;-88
2023/01/17 08:46:09;;;;;;;0.63;0.63;;;;;;;;;;5055715;28;20630;-88
2023/01/17 08:48:37;;;;;;;0.75;0.60;;;;;;;;;;5055182;28;20659;-88
2023/01/17 08:51:06;;;;;;;0.90;0.90;;;;;;;;;;5055793;28;20243;-88
2023/01/17 08:53:33;;;;;;;1.48;0.70;;;;;;;;;;5055952;28;20225;-87
2023/01/17 08:56:03;;;;;;;0.70;0.70;;;;;;;;;;5055715;28;20209;-87
2023/01/17 08:58:32;;;;;;;0.50;0.50;;;;;;;;;;5055614;28;20249;-88
2023/01/17 09:01:02;;;;;;;0.65;0.65;;;;;;;;;;5072832;28;20229;-88
2023/01/17 09:03:31;;;;;;;0.80;0.80;;;;;;;;;;5075418;28;20213;-88
2023/01/17 09:06:04;;;;;;;0.80;0.80;;;;;;;;;;5075004;28;20205;-88
2023/01/17 09:08:31;;;;;;;0.85;0.85;;;;;;;;;;5075494;28;20201;-88
2023/01/17 09:11:02;;;;;;;0.90;0.90;;;;;;;;;;5075441;28;20228;-88
2023/01/17 09:13:30;;;;;;;0.90;0.90;;;;;;;;;;5075546;28;20209;-88
2023/01/17 09:15:58;;;;;;;1.35;1.25;;;;;;;;;;5075547;28;20232;-88
2023/01/17 09:18:26;;;;;;;0.70;0.70;;;;;;;;;;5060954;28;20629;-88
2023/01/17 09:20:58;;;;;;;0.82;0.82;;;;;;;;;;5075325;28;20201;-88
2023/01/17 09:23:27;;;;;;;0.82;0.75;;;;;;;;;;5075387;28;20201;-88
2023/01/17 09:25:55;;;;;;;1.15;0.80;;;;;;;;;;5074541;28;20197;-88
2023/01/17 09:28:23;;;;;;;0.75;0.75;;;;;;;;;;5074356;28;20247;-89
2023/01/17 09:30:52;;;;;;;0.82;0.82;;;;;;;;;;5074953;28;20229;-88
2023/01/17 09:33:22;;;;;;;0.65;0.65;;;;;;;;;;5075030;28;20254;-88
2023/01/17 09:35:49;;;;;;;0.75;0.75;;;;;;;;;;5075201;28;20629;-88
2023/01/17 09:38:20;;;;;;;1.13;1.02;;;;;;;;;;5074550;28;20677;-88
2023/01/17 09:40:49;;;;;;;0.65;0.65;;;;;;;;;;5074723;28;20217;-88
2023/01/17 09:43:23;;;;;;;1.17;0.82;;;;;;;;;;5074763;28;20676;-87
2023/01/17 09:45:51;;;;;;;1.00;1.00;;;;;;;;;;5074739;28;20254;-89
2023/01/17 09:48:25;;;;;;;1.13;1.02;;;;;;;;;;5075186;28;20243;-89
2023/01/17 09:50:57;;;;;;;1.30;1.20;;;;;;;;;;5074503;28;20650;-87
2023/01/17 09:53:27;;;;;;;0.70;0.70;;;;;;;;;;5073774;28;20533;-88
2023/01/17 09:56:01;;;;;;;0.88;0.85;;;;;;;;;;5061849;22;20234;-89
2023/01/17 09:58:38;;;;;;;1.10;1.00;;;;;;;;;;5032292;28;20598;-89
2023/01/17 10:01:14;;;;;;;2.53;1.88;;;;;;;;;;5042406;28;20230;-89
2023/01/17 10:03:51;;;;;;;0.70;0.70;;;;;;;;;;5033842;28;20187;-89
2023/01/17 10:06:37;;;;;;;0.90;0.90;;;;;;;;;;5033706;28;20229;-88
2023/01/17 10:09:49;;;;;;;0.90;0.90;;;;;;;;;;5033524;28;20193;-89
2023/01/17 10:12:25;;;;;;;0.70;0.70;;;;;;;;;;5033722;28;20200;-89
2023/01/17 10:15:25;;;;;;;1.27;0.93;;;;;;;;;;5033604;28;20228;-89
2023/01/17 10:18:00;;;;;;;1.02;1.00;;;;;;;;;;5030068;28;20202;-89
2023/01/17 10:20:44;;;;;;;1.00;1.00;;;;;;;;;;5033569;28;20292;-89
2023/01/17 10:23:29;;;;;;;1.10;1.00;;;;;;;;;;5033790;28;20281;-89
2023/01/17 10:25:59;;;;;;;1.15;1.10;;;;;;;;;;5033260;28;20241;-89
2023/01/17 10:28:32;;;;;;;1.50;1.30;;;;;;;;;;5033185;28;20290;-90
2023/01/17 10:31:04;;;;;;;1.13;1.13;;;;;;;;;;5033388;28;20292;-89
2023/01/17 10:33:39;;;;;;;1.40;1.30;;;;;;;;;;5033371;28;20889;-89
2023/01/17 10:36:11;;;;;;;1.30;1.20;;;;;;;;;;5033653;28;20302;-89
2023/01/17 10:38:39;;;;;;;1.73;1.63;;;;;;;;;;5032878;28;20206;-90
2023/01/17 10:41:14;;;;;;;1.40;1.30;;;;;;;;;;5032836;28;20358;-89
2023/01/17 10:43:50;;;;;;;1.60;1.50;;;;;;;;;;5033423;28;20598;-89
2023/01/17 10:46:22;;;;;;;4.13;1.40;;;;;;;;;;5033114;28;20267;-89
2023/01/17 10:48:52;;;;;;;1.60;1.50;;;;;;;;;;5032589;28;20186;-88
2023/01/17 10:51:59;;;;;;;2.65;1.50;;;;;;;;;;5032564;28;20202;-89
2023/01/17 10:54:43;;;;;;;2.75;2.00;;;;;;;;;;5032562;28;20226;-89
2023/01/17 10:57:17;;;;;;;3.00;2.70;;;;;;;;;;5012483;28;20691;-88
2023/01/17 11:00:38;;;;;;;2.30;2.10;;;;;;;;;;5020070;28;20264;-88
2023/01/17 11:03:49;;;;;;;3.00;2.10;;;;;;;;;;5033098;28;20581;-89
2023/01/17 11:06:20;;;;;;;2.00;1.90;;;;;;;;;;5033098;28;20201;-89
2023/01/17 11:08:54;;;;;;;1.50;1.40;;;;;;;;;;5032519;28;20703;-89
2023/01/17 11:11:28;;;;;;;1.88;1.58;;;;;;;;;;5033027;28;20206;-89
2023/01/17 11:13:58;;;;;;;1.20;1.10;;;;;;;;;;5033167;28;20194;-89
2023/01/17 11:16:31;;;;;;;2.42;1.50;;;;;;;;;;5032501;28;20356;-89
2023/01/17 11:19:29;;;;;;;1.60;1.50;;;;;;;;;;5013129;28;20229;-89
2023/01/17 11:22:01;;;;;;;1.40;1.30;;;;;;;;;;5012909;28;20266;-90
2023/01/17 11:24:35;;;;;;;1.30;1.17;;;;;;;;;;5013167;28;20227;-89
2023/01/17 11:27:04;;;;;;;2.88;1.35;;;;;;;;;;5013293;28;20190;-89
2023/01/17 11:29:50;;;;;;;1.15;1.10;;;;;;;;;;5016828;28;20203;-88
2023/01/17 11:32:30;;;;;;;1.27;0.98;;;;;;;;;;5040903;28;20664;-88
2023/01/17 11:35:17;;;;;;;2.45;1.88;;;;;;;;;;5052553;28;20221;-90
2023/01/17 11:37:53;;;;;;;3.63;2.50;;;;;;;;;;5052999;28;20630;-89
2023/01/17 11:40:26;;;;;;;1.48;1.25;;;;;;;;;;5051750;28;20227;-89
2023/01/17 11:43:04;;;;;;;2.15;1.70;;;;;;;;;;5052864;28;20189;-89
2023/01/17 11:45:34;;;;;;;1.55;1.45;;;;;;;;;;5052356;28;20217;-90
2023/01/17 11:48:14;;;;;;;2.78;2.00;;;;;;;;;;5051483;28;20277;-89
2023/01/17 11:50:45;;;;;;;2.40;2.00;;;;;;;;;;5052908;28;20553;-90
2023/01/17 11:53:25;;;;;;;1.75;1.52;;;;;;;;;;5052298;28;20275;-88
2023/01/17 11:56:11;;;;;;;1.33;1.23;;;;;;;;;;5040758;28;20344;-89
2023/01/17 11:58:41;;;;;;;2.10;1.70;;;;;;;;;;5031026;28;20201;-88
2023/01/17 12:01:33;;;;;;;1.88;1.10;;;;;;;;;;5031652;28;20230;-89
2023/01/17 12:04:24;;;;;;;1.50;1.40;;;;;;;;;;5033344;28;20187;-88
2023/01/17 12:07:15;;;;;;;1.27;1.23;;;;;;;;;;5031517;28;20584;-88
2023/01/17 12:09:49;;;;;;;1.48;1.35;;;;;;;;;;5035769;28;20209;-89
2023/01/17 12:15:24;;;;;;;1.30;1.20;;;;;;;;;;5036157;28;20232;-89
2023/01/17 12:18:21;;;;;;;1.45;1.10;;;;;;;;;;5035986;28;20193;-88
2023/01/17 12:20:55;;;;;;;1.02;1.00;;;;;;;;;;5035875;28;20724;-88
2023/01/17 12:23:39;;;;;;;0.82;0.82;;;;;;;;;;5036085;28;20652;-90
2023/01/17 12:26:22;;;;;;;0.80;0.80;;;;;;;;;;5035914;28;20225;-89
2023/01/17 12:29:57;;;;;;;1.83;1.17;;;;;;;;;;5035873;28;20273;-89
2023/01/17 12:32:51;;;;;;;0.90;0.85;;;;;;;;;;4998810;28;20338;-89
2023/01/17 12:35:25;;;;;;;1.13;1.10;;;;;;;;;;5016344;28;20226;-89
2023/01/17 12:37:58;;;;;;;0.98;0.90;;;;;;;;;;5017487;28;20218;-89
2023/01/17 12:40:30;;;;;;;2.85;1.70;;;;;;;;;;5017279;28;20242;-89
2023/01/17 12:43:03;;;;;;;3.60;2.72;;;;;;;;;;5016855;28;20273;-89
2023/01/17 12:45:33;;;;;;;1.30;1.20;;;;;;;;;;5016108;28;20721;-90
2023/01/17 12:48:06;;;;;;;2.38;1.33;;;;;;;;;;5015845;28;20203;-89
2023/01/17 12:50:39;;;;;;;1.30;1.20;;;;;;;;;;5015988;28;20559;-89
2023/01/17 12:53:18;;;;;;;0.82;0.82;;;;;;;;;;5016036;28;20192;-90
2023/01/17 12:55:51;;;;;;;1.23;0.90;;;;;;;;;;5018938;28;20314;-90
2023/01/17 12:58:23;;;;;;;2.08;1.02;;;;;;;;;;5015150;28;20294;-89
2023/01/17 13:00:59;;;;;;;1.73;0.88;;;;;;;;;;5032948;28;20300;-88
2023/01/17 13:03:35;;;;;;;1.83;1.20;;;;;;;;;;5035348;28;20217;-89
2023/01/17 13:06:08;;;;;;;0.90;0.90;;;;;;;;;;5034205;28;20237;-89
2023/01/17 13:08:41;;;;;;;0.60;0.60;;;;;;;;;;5034868;28;20194;-88
2023/01/17 13:11:16;;;;;;;0.77;0.77;;;;;;;;;;5035336;28;20286;-89
2023/01/17 13:13:46;;;;;;;2.55;1.20;;;;;;;;;;5034854;28;20197;-89
2023/01/17 13:16:18;;;;;;;1.13;0.98;;;;;;;;;;5035034;28;20256;-89
2023/01/17 13:18:47;;;;;;;0.70;0.70;;;;;;;;;;5034075;28;20278;-88
2023/01/17 13:21:31;;;;;;;0.57;0.57;;;;;;;;;;5035139;28;20598;-88
2023/01/17 13:24:38;;;;;;;0.60;0.60;;;;;;;;;;5033952;28;20232;-89
2023/01/17 13:27:28;;;;;;;2.08;1.38;;;;;;;;;;4993137;28;20278;-89
2023/01/17 13:30:24;;;;;;;0.80;0.80;;;;;;;;;;4992711;28;20300;-89
2023/01/17 13:33:26;;;;;;;0.70;0.70;;;;;;;;;;5036716;28;20289;-89
2023/01/17 13:36:09;;;;;;;0.60;0.60;;;;;;;;;;5053943;28;20257;-89
2023/01/17 13:39:30;;;;;;;0.70;0.70;;;;;;;;;;5055503;28;20570;-89
2023/01/17 13:42:12;;;;;;;0.75;0.75;;;;;;;;;;5057532;28;20205;-89
2023/01/17 13:44:39;;;;;;;1.10;1.00;;;;;;;;;;5057510;28;20221;-89
2023/01/17 13:47:39;;;;;;;5.18;3.05;;;;;;;;;;5055983;28;20293;-89
2023/01/17 13:50:32;;;;;;;1.65;1.55;;;;;;;;;;5056087;28;20201;-89
2023/01/17 13:53:04;;;;;;;2.20;1.25;;;;;;;;;;5041501;28;20248;-89
2023/01/17 13:55:47;;;;;;;1.85;1.05;;;;;;;;;;5056624;28;20233;-89
2023/01/17 13:58:28;;;;;;;2.22;1.35;;;;;;;;;;5056055;28;20209;-89
2023/01/17 14:00:56;;;;;;;1.10;1.00;;;;;;;;;;5039434;28;20226;-89
2023/01/17 14:04:05;;;;;;;1.50;1.40;;;;;;;;;;5036560;28;20190;-89
2023/01/17 14:06:40;;;;;;;1.75;1.65;;;;;;;;;;5037116;28;20212;-89
2023/01/17 14:09:16;;;;;;;1.73;1.20;;;;;;;;;;5037765;28;20193;-90
2023/01/17 14:12:03;;;;;;;1.95;1.38;;;;;;;;;;5035703;28;20213;-89
2023/01/17 14:14:50;;;;;;;1.85;1.70;;;;;;;;;;5036108;28;20233;-89
2023/01/17 14:17:58;;;;;;;1.33;1.13;;;;;;;;;;5036053;28;20230;-89
2023/01/17 14:20:46;;;;;;;0.90;0.90;;;;;;;;;;5037282;28;20206;-90
2023/01/17 14:24:02;;;;;;;1.55;0.90;;;;;;;;;;5036625;28;20262;-90
2023/01/17 14:26:54;;;;;;;1.85;1.15;;;;;;;;;;5037099;28;20226;-89
2023/01/17 14:29:57;;;;;;;1.83;1.00;;;;;;;;;;5034660;28;20289;-89
2023/01/17 14:32:28;;;;;;;2.05;0.95;;;;;;;;;;5034762;28;20617;-89
2023/01/17 14:34:57;;;;;;;1.23;0.93;;;;;;;;;;5036215;28;20306;-89
2023/01/17 14:37:41;;;;;;;1.15;1.00;;;;;;;;;;5035230;28;20675;-89
2023/01/17 14:40:19;;;;;;;0.80;0.80;;;;;;;;;;5035182;28;20233;-89
2023/01/17 14:42:58;;;;;;;1.90;1.10;;;;;;;;;;5035313;28;20201;-90
2023/01/17 14:45:29;;;;;;;1.08;1.00;;;;;;;;;;5035839;28;20833;-89
2023/01/17 14:47:58;;;;;;;1.00;0.90;;;;;;;;;;5035331;28;20245;-89
2023/01/17 14:50:29;;;;;;;1.23;0.90;;;;;;;;;;5035955;28;20652;-89
2023/01/17 14:53:18;;;;;;;0.70;0.70;;;;;;;;;;5035613;28;20190;-89
2023/01/17 14:55:55;;;;;;;0.70;0.70;;;;;;;;;;5035780;28;20316;-90
2023/01/17 14:58:26;;;;;;;0.63;0.63;;;;;;;;;;5037382;28;20256;-89
2023/01/17 15:00:58;;;;;;;0.98;0.95;;;;;;;;;;5037359;28;20246;-89
2023/01/17 15:03:26;;;;;;;20.83;13.93;;;;;;;;;;5037332;28;20768;-89
2023/01/17 15:05:56;;;;;;;6.97;5.88;;;;;;;;;;5036749;28;20650;-89
2023/01/17 15:08:34;;;;;;;3.00;2.40;;;;;;;;;;5036310;28;20201;-89
2023/01/17 15:11:05;;;;;;;3.65;1.73;;;;;;;;;;5036298;28;20229;-89
2023/01/17 15:13:37;;;;;;;1.38;1.27;;;;;;;;;;5036839;28;20197;-89
2023/01/17 15:16:11;;;;;;;1.10;1.08;;;;;;;;;;5035768;28;20308;-89
2023/01/17 15:18:40;;;;;;;1.42;1.02;;;;;;;;;;5036056;28;20268;-89
2023/01/17 15:21:12;;;;;;;1.98;1.25;;;;;;;;;;5035342;28;20253;-89
2023/01/17 15:23:44;;;;;;;1.95;1.10;;;;;;;;;;5035973;28;20186;-89
2023/01/17 15:26:14;;;;;;;1.13;1.13;;;;;;;;;;5036089;28;20382;-89
2023/01/17 15:28:44;;;;;;;1.63;1.52;;;;;;;;;;5036139;28;20226;-88
2023/01/17 15:31:17;;;;;;;1.27;1.17;;;;;;;;;;5036324;28;20240;-89
2023/01/17 15:33:51;;;;;;;1.27;1.20;;;;;;;;;;5036965;28;20191;-88
2023/01/17 15:36:27;;;;;;;1.15;1.08;;;;;;;;;;5034974;28;20680;-88
2023/01/17 15:42:19;;;;;;;3.28;1.40;;;;;;;;;;5034755;28;20230;-89
2023/01/17 15:44:53;;;;;;;1.00;1.00;;;;;;;;;;5039065;28;20218;-89
2023/01/17 15:47:32;;;;;;;1.63;1.17;;;;;;;;;;5051769;28;20288;-89
2023/01/17 15:50:17;;;;;;;2.35;1.27;;;;;;;;;;5058472;28;20280;-89
2023/01/17 15:52:52;;;;;;;2.38;1.48;;;;;;;;;;5044809;28;20218;-89
2023/01/17 15:55:26;;;;;;;1.40;1.20;;;;;;;;;;5054845;22;20607;-86
2023/01/17 15:57:54;;;;;;;1.85;1.20;;;;;;;;;;5041231;28;20573;-84
2023/01/17 16:00:25;;;;;;;1.45;1.23;;;;;;;;;;5041866;28;20262;-84
2023/01/17 16:02:55;;;;;;;1.15;0.98;;;;;;;;;;5041449;28;20218;-83
2023/01/17 16:05:42;;;;;;;1.67;1.00;;;;;;;;;;5040805;28;20284;-83
2023/01/17 16:08:35;;;;;;;1.00;0.98;;;;;;;;;;5040263;28;20206;-83
2023/01/17 16:11:05;;;;;;;1.65;1.00;;;;;;;;;;5041453;28;20205;-83
2023/01/17 16:13:36;;;;;;;1.20;1.10;;;;;;;;;;5040164;28;20206;-85
2023/01/17 16:16:19;;;;;;;1.40;1.30;;;;;;;;;;5041777;28;20222;-84
2023/01/17 16:18:47;;;;;;;1.13;1.02;;;;;;;;;;5039835;28;20281;-84
2023/01/17 16:21:24;;;;;;;1.23;1.05;;;;;;;;;;5040697;28;20237;-85
2023/01/17 16:23:52;;;;;;;1.50;1.40;;;;;;;;;;5041239;28;20230;-84
2023/01/17 16:26:20;;;;;;;2.65;2.45;;;;;;;;;;5026561;28;20227;-84
2023/01/17 16:28:47;;;;;;;2.15;1.95;;;;;;;;;;5019826;28;20191;-84
2023/01/17 16:31:17;;;;;;;4.07;3.13;;;;;;;;;;5039928;28;20281;-84
2023/01/17 16:33:44;;;;;;;8.15;4.97;;;;;;;;;;5038427;28;20229;-84
2023/01/17 16:36:16;;;;;;;6.35;5.15;;;;;;;;;;5040972;28;20262;-85
2023/01/17 16:38:44;;;;;;;5.32;4.80;;;;;;;;;;5040695;28;20695;-84
2023/01/17 16:41:11;;;;;;;9.40;3.72;;;;;;;;;;5041279;28;20262;-84
2023/01/17 16:43:39;;;;;;;5.85;3.40;;;;;;;;;;5041979;28;20316;-84
2023/01/17 16:46:07;;;;;;;4.70;4.00;;;;;;;;;;5040703;28;20218;-84
2023/01/17 16:48:37;;;;;;;5.03;2.72;;;;;;;;;;5040320;28;20202;-84
2023/01/17 16:51:07;;;;;;;2.80;2.53;;;;;;;;;;5039156;28;20617;-84